Home   Weather   Australia   Sydney   Past weeks
Flag for Australia

Past Weather in Sydney, New South Wales, Australia — Yesterday and Last 2 Weeks

Currently: 63 °F. Sunny. (Weather station: Sydney Airport, Australia). See more current weather

Past Weather in Sydney — Graph

°F

Sydney Temperature Yesterday

Maximum temperature yesterday: 64 °F (at 11:30 am)
Minimum temperature yesterday: 50 °F (at 4:30 am)
Average temperature yesterday: 57 °F

High & Low Weather Summary for the Past Weeks

 TemperatureHumidityPressure
High75 °F (Aug 3, 2:30 pm)100% (Aug 10, 2:30 am)30.39 "Hg (Aug 10, 2:30 am)
Low46 °F (Aug 2, 4:30 am)24% (Aug 2, 2:30 pm)29.56 "Hg (Aug 4, 8:00 pm)
Average59 °F63%29.95 "Hg
* Reported Aug 1 3:00 pm — Aug 16 3:00 pm, Sydney. Weather by CustomWeather, © 2022

Note: Actual official high and low records may vary slightly from our data, if they occured in-between our weather recording intervals... More about our weather records

Sydney Weather History for the Previous 24 Hours

Scroll right to see more
 ConditionsComfort  
Time TempWeatherWind HumidityBarometerVisibility
3:00 pm
Tue, Aug 16
66 °FSunny.14 mph35%29.80 "Hg10 mi
2:30 pm64 °FSunny.16 mph34%29.80 "Hg10 mi
2:00 pm64 °FSunny.17 mph34%29.80 "Hg10 mi
1:30 pm64 °FSunny.17 mph34%29.77 "Hg10 mi
1:00 pm64 °FSunny.13 mph32%29.77 "Hg10 mi
12:30 pm63 °FSunny.18 mph39%29.80 "Hg10 mi
12:00 pm64 °FSunny.20 mph40%29.80 "Hg10 mi
11:00 am63 °FSunny.16 mph45%29.80 "Hg10 mi
9:30 am59 °FPassing clouds.9 mph51%29.83 "HgN/A
9:00 am57 °FPassing clouds.10 mph59%29.80 "HgN/A
8:30 am55 °FPassing clouds.12 mph59%29.80 "HgN/A
8:00 am52 °FPassing clouds.14 mph67%29.80 "HgN/A
7:30 am52 °FPassing clouds.10 mph67%29.80 "HgN/A
7:00 am50 °FPassing clouds.8 mph71%29.80 "HgN/A
6:00 am48 °FClear.7 mph76%29.77 "Hg10 mi
5:30 am48 °FClear.7 mph76%29.77 "Hg10 mi
5:00 am48 °FClear.6 mph76%29.77 "Hg10 mi
4:30 am50 °FClear.6 mph76%29.77 "Hg10 mi
4:00 am50 °FClear.6 mph71%29.74 "Hg10 mi
3:00 am50 °FClear.8 mph71%29.77 "Hg10 mi
2:30 am52 °FClear.7 mph67%29.77 "Hg10 mi
2:00 am52 °FClear.8 mph67%29.77 "Hg10 mi
1:30 am54 °FClear.9 mph63%29.77 "Hg10 mi
1:00 am54 °FClear.7 mph63%29.77 "Hg10 mi
12:30 am54 °FClear.8 mph63%29.77 "Hg10 mi
11:30 pm
Mon, Aug 15
54 °FClear.8 mph63%29.77 "Hg10 mi
11:00 pm54 °FClear.10 mph63%29.77 "Hg10 mi
10:30 pm54 °FClear.13 mph63%29.77 "Hg10 mi
10:00 pm54 °FClear.13 mph63%29.77 "Hg10 mi
9:30 pm55 °FClear.10 mph59%29.77 "Hg10 mi
9:00 pm55 °FClear.13 mph59%29.77 "Hg10 mi
8:30 pm57 °FClear.14 mph51%29.77 "Hg10 mi
8:00 pm57 °FClear.10 mph51%29.77 "Hg10 mi
7:30 pm57 °FClear.10 mph51%29.77 "Hg10 mi
7:00 pm59 °FClear.13 mph51%29.77 "HgN/A
6:30 pm59 °FClear.14 mph48%29.74 "HgN/A
6:00 pm59 °FClear.13 mph48%29.74 "HgN/A
5:30 pm59 °FClear.16 mph48%29.74 "Hg10 mi
5:00 pm61 °FSunny.15 mph45%29.74 "Hg10 mi
4:30 pm61 °FSunny.16 mph42%29.71 "Hg10 mi
4:00 pm63 °FSunny.20 mph39%29.74 "Hg10 mi
Weather by CustomWeather, © 2022

See weather overview